No particular awareness of the weather is required.    There are no Weather-warnings


Meteo18 Weather Cam more information Meteo18 Weather Cam


Thunder radar more information blitzortung!


Rain radar more information rain snow radar


Visit our other weather sites:

Template documentation
and downloads

And another site



Weather Underground History page Text

Daily Summary for March 2, 2018 Units:  English    Metric   Both
« Previous Day
Next Day »
Daily Weekly Monthly Yearly Custom
  High: Low: Average:
Temperature: TemperatureC °F 1.4 °F 5.9 °F
Dew Point: DewpointC °F -1.6 °F 2.5 °F
Humidity: Humidity % 58 % 79 %
Wind Speed: WindSpeedKMH mph 0.0 mph 8.5 mph
Wind Gust: WindSpeedGustKMH mph - -
Wind:- - SSW
Pressure: PressurehPa in 985.7 in -
Precipitation: 7.1 in    
Historical Graphs
 
 
Tabular Data for March 2, 2018
Time Temperature Dew Point Pressure Wind Wind Speed Wind Gust Humidity Rainfall Rate (Hourly)
TemperatureC °F DewpointC °F PressurehPa in Calm     Humidity % HourlyPrecipMM in
00:00 6.2 °F 3.5 °F 986.3 in East 4.7 mph 17.7 mph 83 % 0.0 in
00:06 6.3 °F 3.6 °F 986.3 in East 7.9 mph 12.9 mph 83 % 0.0 in
00:12 6.2 °F 3.5 °F 986.3 in ESE 1.4 mph 12.9 mph 83 % 0.0 in
00:18 6.2 °F 3.5 °F 986.3 in SE 6.4 mph 11.3 mph 83 % 0.0 in
00:24 6.2 °F 3.5 °F 986.0 in ESE 4.7 mph 11.3 mph 83 % 0.0 in
00:30 6.1 °F 3.4 °F 986.3 in East 6.4 mph 6.4 mph 83 % 0.0 in
00:36 5.9 °F 3.4 °F 986.3 in East 1.4 mph 6.4 mph 84 % 0.0 in
00:42 5.7 °F 3.2 °F 986.3 in ESE 3.2 mph 9.7 mph 84 % 0.0 in
00:48 5.7 °F 3.4 °F 986.3 in East 3.2 mph 6.4 mph 85 % 0.0 in
00:54 5.7 °F 3.4 °F 986.3 in East 3.2 mph 6.4 mph 85 % 0.0 in
01:00 5.7 °F 3.4 °F 986.3 in East 4.7 mph 11.3 mph 85 % 0.0 in
01:06 5.9 °F 3.6 °F 986.0 in East 4.7 mph 8.0 mph 85 % 0.0 in
01:12 5.9 °F 3.6 °F 986.3 in SE 4.7 mph 11.3 mph 85 % 0.0 in
01:18 6.0 °F 3.7 °F 986.3 in East 4.7 mph 9.7 mph 85 % 0.0 in
01:24 6.2 °F 3.9 °F 986.0 in East 9.7 mph 11.3 mph 85 % 0.0 in
01:30 6.3 °F 3.8 °F 986.0 in East 1.4 mph 4.8 mph 84 % 0.0 in
01:36 6.3 °F 3.8 °F 986.0 in SE 4.7 mph 6.4 mph 84 % 0.0 in
01:43 6.2 °F 3.9 °F 986.0 in ESE 1.4 mph 8.0 mph 85 % 0.0 in
01:49 6.2 °F 3.9 °F 986.0 in SE 3.2 mph 8.0 mph 85 % 0.0 in
01:55 6.2 °F 3.9 °F 985.7 in SE 3.2 mph 8.0 mph 85 % 0.0 in
02:01 6.2 °F 3.9 °F 986.0 in SE 4.7 mph 8.0 mph 85 % 0.0 in
02:07 6.3 °F 4.0 °F 985.7 in SSE 3.2 mph 8.0 mph 85 % 0.0 in
02:13 6.4 °F 4.1 °F 985.7 in SE 9.7 mph 9.7 mph 85 % 0.0 in
02:19 6.6 °F 4.1 °F 985.7 in ESE 6.4 mph 9.7 mph 84 % 0.0 in
02:25 6.7 °F 4.2 °F 985.7 in SE 1.4 mph 14.5 mph 84 % 0.0 in
02:31 6.7 °F 4.2 °F 986.0 in SE 9.7 mph 11.3 mph 84 % 0.0 in
02:37 6.7 °F 4.2 °F 986.0 in SE 4.7 mph 9.7 mph 84 % 0.0 in
02:43 6.7 °F 4.2 °F 986.0 in SE 6.4 mph 11.3 mph 84 % 0.0 in
02:49 6.7 °F 4.2 °F 986.0 in SE 1.4 mph 6.4 mph 84 % 0.0 in
02:55 6.6 °F 4.1 °F 986.0 in SSE 1.4 mph 6.4 mph 84 % 0.0 in
03:01 6.5 °F 4.2 °F 986.0 in Calm   8.0 mph 85 % 0.0 in
03:07 6.4 °F 4.2 °F 986.0 in Calm   4.8 mph 86 % 0.0 in
03:13 6.3 °F 4.3 °F 986.0 in SE 1.4 mph 1.6 mph 87 % 0.3 in
03:19 6.2 °F 4.2 °F 985.7 in Calm   3.2 mph 87 % 0.3 in
03:25 6.1 °F 4.3 °F 985.7 in Calm   1.6 mph 88 % 0.5 in
03:31 6.1 °F 4.3 °F 985.7 in Calm     88 % 0.5 in
03:37 6.0 °F 4.3 °F 985.7 in Calm     89 % 0.5 in
03:43 6.0 °F 4.3 °F 985.7 in Calm   1.6 mph 89 % 0.8 in
03:49 6.1 °F 4.4 °F 985.7 in Calm   1.6 mph 89 % 1.0 in
03:55 6.1 °F 4.4 °F 985.7 in Calm   1.6 mph 89 % 1.3 in
04:01 6.0 °F 4.5 °F 986.0 in SE 4.7 mph 6.4 mph 90 % 1.5 in
04:07 6.0 °F 4.5 °F 985.7 in ESE 1.4 mph 3.2 mph 90 % 1.5 in
04:13 5.9 °F 4.5 °F 985.7 in Calm   4.8 mph 91 % 1.5 in
04:19 5.7 °F 4.3 °F 985.7 in ESE 1.4 mph 3.2 mph 91 % 1.8 in
04:25 5.7 °F 4.5 °F 986.0 in ESE 1.4 mph 3.2 mph 92 % 1.8 in
04:31 5.6 °F 4.4 °F 986.0 in Calm   4.8 mph 92 % 2.3 in
04:37 5.6 °F 4.6 °F 985.7 in ESE 1.4 mph 3.2 mph 93 % 2.3 in
04:43 5.4 °F 4.4 °F 986.0 in Calm   3.2 mph 93 % 2.3 in
04:49 5.3 °F 4.3 °F 986.0 in SE 3.2 mph 3.2 mph 93 % 2.3 in
04:55 5.4 °F 4.5 °F 986.0 in Calm   4.8 mph 94 % 2.3 in
05:01 5.4 °F 4.5 °F 986.0 in Calm   3.2 mph 94 % 2.3 in
05:07 5.4 °F 4.5 °F 986.0 in South 3.2 mph 4.8 mph 94 % 2.3 in
05:13 5.4 °F 4.5 °F 986.0 in Calm   3.2 mph 94 % 2.3 in
05:19 5.3 °F 4.4 °F 986.0 in SSE 1.4 mph 1.6 mph 94 % 2.3 in
05:25 5.2 °F 4.3 °F 986.0 in SSW 1.4 mph 3.2 mph 94 % 2.0 in
05:31 5.2 °F 4.5 °F 986.0 in South 4.7 mph 6.4 mph 95 % 1.8 in
05:37 5.2 °F 4.5 °F 986.3 in SE 1.4 mph 11.3 mph 95 % 1.5 in
05:43 5.2 °F 4.5 °F 986.3 in SE 6.4 mph 8.0 mph 95 % 1.3 in
05:49 5.2 °F 4.5 °F 986.3 in SSE 4.7 mph 6.4 mph 95 % 1.3 in
05:55 5.1 °F 4.4 °F 986.3 in SE 1.4 mph 6.4 mph 95 % 1.3 in
06:01 5.1 °F 4.4 °F 986.3 in SE 1.4 mph 8.0 mph 95 % 1.3 in
06:07 4.9 °F 4.2 °F 986.3 in SSE 1.4 mph 4.8 mph 95 % 1.3 in
06:13 4.9 °F 4.2 °F 986.3 in SSE 4.7 mph 8.0 mph 95 % 1.3 in
06:19 4.9 °F 4.2 °F 986.7 in South 3.2 mph 9.7 mph 95 % 1.0 in
06:25 4.8 °F 4.1 °F 986.7 in SSE 3.2 mph 14.5 mph 95 % 1.3 in
06:31 4.8 °F 4.1 °F 987.0 in SSW 6.4 mph 12.9 mph 95 % 1.3 in
06:37 4.7 °F 4.0 °F 987.0 in SSW 7.9 mph 11.3 mph 95 % 1.3 in
06:43 4.9 °F 4.3 °F 987.0 in SW 11.1 mph 14.5 mph 96 % 1.3 in
06:49 5.1 °F 4.5 °F 987.0 in SW 14.3 mph 14.5 mph 96 % 1.3 in
06:55 5.2 °F 4.6 °F 987.0 in SSW 7.9 mph 19.3 mph 96 % 1.0 in
07:01 5.5 °F 4.9 °F 987.4 in SW 11.1 mph 16.1 mph 96 % 1.3 in
07:07 5.7 °F 5.1 °F 987.4 in SSW 9.7 mph 14.5 mph 96 % 1.3 in
07:13 5.8 °F 5.1 °F 987.4 in WSW 9.7 mph 16.1 mph 95 % 1.0 in
07:19 5.8 °F 5.1 °F 987.4 in SSW 6.4 mph 12.9 mph 95 % 1.3 in
07:25 5.8 °F 5.1 °F 987.7 in SW 6.4 mph 8.0 mph 95 % 1.0 in
07:31 5.8 °F 5.1 °F 987.7 in South 7.9 mph 11.3 mph 95 % 1.0 in
07:37 5.7 °F 5.0 °F 987.7 in SSW 4.7 mph 9.7 mph 95 % 1.3 in
07:43 5.6 °F 4.9 °F 988.0 in SW 9.7 mph 14.5 mph 95 % 1.3 in
07:49 5.6 °F 4.9 °F 988.0 in SW 7.9 mph 9.7 mph 95 % 1.0 in
07:55 5.7 °F 5.1 °F 988.0 in SSW 7.9 mph 14.5 mph 96 % 1.0 in
08:01 5.8 °F 5.2 °F 988.0 in SW 4.7 mph 11.3 mph 96 % 1.0 in
08:07 5.8 °F 5.2 °F 988.0 in SSW 7.9 mph 12.9 mph 96 % 0.8 in
08:13 5.8 °F 5.2 °F 988.4 in WSW 4.7 mph 16.1 mph 96 % 0.8 in
08:19 5.8 °F 5.2 °F 988.7 in SSW 13.0 mph 20.9 mph 96 % 0.5 in
08:25 5.8 °F 5.1 °F 988.7 in SW 11.1 mph 17.7 mph 95 % 0.5 in
08:31 5.9 °F 5.2 °F 988.7 in WSW 11.1 mph 24.1 mph 95 % 0.5 in
08:37 6.1 °F 5.4 °F 988.7 in West 17.7 mph 29.0 mph 95 % 0.3 in
08:43 6.1 °F 5.2 °F 989.1 in WSW 13.0 mph 25.7 mph 94 % 0.3 in
08:49 6.1 °F 5.2 °F 989.1 in WSW 22.7 mph 27.4 mph 94 % 0.3 in
08:55 6.2 °F 5.2 °F 989.4 in SSW 6.4 mph 30.6 mph 93 % 0.3 in
09:01 6.3 °F 5.1 °F 989.7 in WSW 27.4 mph 32.2 mph 92 % 0.0 in
09:07 6.3 °F 4.9 °F 989.7 in West 13.0 mph 25.7 mph 91 % 0.0 in
09:13 6.3 °F 4.9 °F 990.1 in WSW 6.4 mph 22.5 mph 91 % 0.0 in
09:19 6.3 °F 4.9 °F 990.1 in WSW 16.3 mph 25.7 mph 91 % 0.0 in
09:25 6.3 °F 4.8 °F 990.1 in SW 16.3 mph 24.1 mph 90 % 0.0 in
09:32 6.4 °F 4.9 °F 990.7 in WSW 7.9 mph 22.5 mph 90 % 0.0 in
09:37 6.3 °F 4.8 °F 990.7 in SW 11.1 mph 22.5 mph 90 % 0.0 in
09:44 6.3 °F 4.6 °F 990.7 in SW 17.7 mph 24.1 mph 89 % 0.0 in
09:50 6.3 °F 4.6 °F 991.1 in WSW 20.9 mph 22.5 mph 89 % 0.0 in
09:56 6.3 °F 4.6 °F 991.1 in WSW 13.0 mph 30.6 mph 89 % 0.0 in
10:02 6.3 °F 4.5 °F 991.4 in WSW 13.0 mph 19.3 mph 88 % 0.0 in
10:08 6.3 °F 4.5 °F 991.4 in SSW 16.3 mph 22.5 mph 88 % 0.0 in
10:14 6.3 °F 4.5 °F 991.4 in SW 14.3 mph 24.1 mph 88 % 0.0 in
10:20 6.4 °F 4.4 °F 991.8 in WSW 16.3 mph 30.6 mph 87 % 0.0 in
10:28 6.6 °F 4.4 °F 991.8 in SW 9.7 mph 19.3 mph 86 % 0.0 in
10:34 6.7 °F 4.2 °F 992.1 in WSW 24.1 mph 30.6 mph 84 % 0.0 in
10:40 6.9 °F 4.2 °F 992.4 in West 20.9 mph 22.5 mph 83 % 0.0 in
10:46 7.1 °F 4.2 °F 992.4 in WSW 22.7 mph 25.7 mph 82 % 0.0 in
10:52 7.2 °F 4.0 °F 992.4 in SW 11.1 mph 38.6 mph 80 % 0.0 in
10:58 7.3 °F 3.7 °F 992.4 in WSW 19.5 mph 30.6 mph 78 % 0.0 in
11:04 7.6 °F 3.6 °F 992.4 in SW 17.7 mph 33.8 mph 76 % 0.0 in
11:10 7.6 °F 3.5 °F 992.8 in WSW 28.8 mph 41.8 mph 75 % 0.0 in
11:16 7.6 °F 3.6 °F 992.8 in SSW 17.7 mph 30.6 mph 76 % 0.0 in
11:22 7.6 °F 3.6 °F 993.1 in WSW 20.9 mph 32.2 mph 76 % 0.0 in
11:28 7.6 °F 3.6 °F 993.1 in WSW 17.7 mph 27.4 mph 76 % 0.0 in
11:34 7.5 °F 3.4 °F 993.1 in SSW 6.4 mph 27.4 mph 75 % 0.0 in
11:40 7.4 °F 3.3 °F 993.1 in WSW 22.7 mph 24.1 mph 75 % 0.0 in
11:46 7.5 °F 3.0 °F 993.5 in West 20.9 mph 29.0 mph 73 % 0.0 in
11:52 7.7 °F 3.2 °F 993.5 in SW 17.7 mph 30.6 mph 73 % 0.0 in
11:58 7.8 °F 3.1 °F 993.5 in SW 30.6 mph 32.2 mph 72 % 0.0 in
12:04 7.8 °F 2.3 °F 993.5 in WSW 30.6 mph 37.0 mph 68 % 0.0 in
12:10 7.9 °F 2.6 °F 993.5 in West 13.0 mph 33.8 mph 69 % 0.0 in
12:16 8.0 °F 2.7 °F 993.5 in SW 33.8 mph 33.8 mph 69 % 0.0 in
12:22 8.1 °F 2.3 °F 993.5 in South 14.3 mph 49.9 mph 67 % 0.0 in
12:28 8.1 °F 2.5 °F 993.5 in West 27.4 mph 38.6 mph 68 % 0.0 in
12:34 7.9 °F 2.2 °F 993.8 in WSW 20.9 mph 38.6 mph 67 % 0.3 in
12:40 7.8 °F 2.3 °F 993.8 in West 30.6 mph 37.0 mph 68 % 0.3 in
12:46 7.8 °F 2.5 °F 993.8 in WSW 13.0 mph 32.2 mph 69 % 0.3 in
12:52 8.1 °F 2.8 °F 993.8 in WSW 9.7 mph 20.9 mph 69 % 0.3 in
12:58 8.2 °F 2.4 °F 993.8 in SW 24.1 mph 35.4 mph 67 % 0.3 in
13:04 8.1 °F 2.1 °F 993.8 in West 24.1 mph 32.2 mph 66 % 0.3 in
13:10 8.2 °F 2.2 °F 993.8 in West 19.5 mph 35.4 mph 66 % 0.3 in
13:16 8.5 °F 2.3 °F 993.8 in WSW 27.4 mph 37.0 mph 65 % 0.3 in
13:22 8.9 °F 2.2 °F 993.8 in WNW 25.9 mph 33.8 mph 63 % 0.3 in
13:28 9.0 °F 1.6 °F 993.8 in WSW 19.5 mph 45.1 mph 60 % 0.3 in
13:34 8.8 °F 1.7 °F 993.8 in WSW 20.9 mph 37.0 mph 61 % 0.0 in
13:40 8.7 °F 2.0 °F 994.1 in WSW 13.0 mph 25.7 mph 63 % 0.0 in
13:46 8.6 °F 2.2 °F 993.8 in SW 20.9 mph 33.8 mph 64 % 0.0 in
13:52 8.6 °F 2.4 °F 993.8 in SW 11.1 mph 30.6 mph 65 % 0.0 in
13:58 8.7 °F 2.9 °F 994.1 in SW 16.3 mph 20.9 mph 67 % 0.0 in
14:04 9.1 °F 2.4 °F 993.8 in WSW 27.4 mph 33.8 mph 63 % 0.0 in
14:10 9.0 °F 1.6 °F 994.1 in WSW 27.4 mph 33.8 mph 60 % 0.0 in
14:16 9.2 °F 2.1 °F 994.1 in West 7.9 mph 35.4 mph 61 % 0.0 in
14:22 9.2 °F 2.3 °F 994.1 in WSW 32.0 mph 32.2 mph 62 % 0.0 in
14:28 9.1 °F 2.0 °F 994.1 in WSW 25.9 mph 40.2 mph 61 % 0.0 in
14:34 9.1 °F 2.0 °F 994.1 in SW 32.0 mph 37.0 mph 61 % 0.0 in
14:40 8.9 °F 1.8 °F 994.1 in WSW 13.0 mph 38.6 mph 61 % 0.0 in
14:46 8.9 °F 1.8 °F 993.8 in West 14.3 mph 35.4 mph 61 % 0.0 in
14:52 9.1 °F 1.7 °F 993.8 in SSW 22.7 mph 24.1 mph 60 % 0.0 in
14:58 9.1 °F 2.2 °F 993.8 in West 27.4 mph 35.4 mph 62 % 0.0 in
15:04 9.1 °F 2.6 °F 993.8 in SSW 20.9 mph 27.4 mph 64 % 0.0 in
15:10 9.1 °F 2.4 °F 994.1 in SW 24.1 mph 30.6 mph 63 % 0.0 in
15:16 9.1 °F 3.1 °F 994.1 in SSW 22.7 mph 29.0 mph 66 % 0.0 in
15:28 8.9 °F 2.5 °F 994.1 in SW 22.7 mph 29.0 mph 64 % 0.0 in
15:34 9.0 °F 2.1 °F 994.1 in SW 17.7 mph 35.4 mph 62 % 0.0 in
15:40 8.7 °F 1.8 °F 994.1 in WSW 11.1 mph 25.7 mph 62 % 0.0 in
15:46 8.8 °F 1.7 °F 994.1 in SW 9.7 mph 33.8 mph 61 % 0.0 in
15:52 8.9 °F 1.6 °F 994.5 in SW 30.6 mph 30.6 mph 60 % 0.0 in
15:58 8.7 °F 0.9 °F 994.5 in WSW 17.7 mph 32.2 mph 58 % 0.0 in
16:04 8.5 °F 0.9 °F 994.5 in SW 19.5 mph 38.6 mph 59 % 0.0 in
16:10 8.2 °F 1.4 °F 994.5 in SSW 22.7 mph 30.6 mph 62 % 0.0 in
16:16 7.9 °F 0.8 °F 994.5 in WSW 14.3 mph 32.2 mph 61 % 0.0 in
16:22 8.2 °F 1.1 °F 994.5 in WSW 11.1 mph 24.1 mph 61 % 0.0 in
16:28 8.4 °F 1.5 °F 994.5 in SW 27.4 mph 27.4 mph 62 % 0.0 in
16:34 8.3 °F 1.4 °F 994.5 in SW 17.7 mph 30.6 mph 62 % 0.0 in
16:40 8.3 °F 1.4 °F 994.5 in SW 7.9 mph 29.0 mph 62 % 0.0 in
16:46 8.3 °F 1.7 °F 994.5 in SW 13.0 mph 25.7 mph 63 % 0.0 in
16:52 8.3 °F 1.9 °F 994.5 in SW 9.7 mph 20.9 mph 64 % 0.0 in
16:58 8.3 °F 1.4 °F 994.5 in WSW 14.3 mph 17.7 mph 62 % 0.0 in
17:04 8.1 °F 1.3 °F 994.5 in WSW 11.1 mph 22.5 mph 62 % 0.0 in
17:10 8.2 °F 0.9 °F 994.5 in WSW 7.9 mph 19.3 mph 60 % 0.0 in
17:16 8.3 °F 0.8 °F 994.5 in West 11.1 mph 25.7 mph 59 % 0.0 in
17:22 8.2 °F 1.1 °F 994.5 in SW 9.7 mph 17.7 mph 61 % 0.0 in
17:28 8.1 °F 0.8 °F 994.5 in West 9.7 mph 24.1 mph 60 % 0.0 in
17:34 8.0 °F 0.5 °F 994.5 in WSW 3.2 mph 20.9 mph 59 % 0.0 in
17:40 7.9 °F 0.4 °F 994.5 in SW 3.2 mph 9.7 mph 59 % 0.0 in
17:46 7.9 °F 0.4 °F 994.5 in SW 4.7 mph 12.9 mph 59 % 0.0 in
17:52 7.7 °F 0.7 °F 994.5 in SSW 6.4 mph 9.7 mph 61 % 0.0 in
17:58 7.6 °F 0.3 °F 994.5 in SW 4.7 mph 9.7 mph 60 % 0.0 in
18:04 7.4 °F 0.1 °F 994.5 in SW 4.7 mph 8.0 mph 60 % 0.0 in
18:10 7.4 °F 0.1 °F 994.5 in WSW 3.2 mph 6.4 mph 60 % 0.0 in
18:16 7.3 °F 0.0 °F 994.5 in SW 1.4 mph 3.2 mph 60 % 0.0 in
18:22 7.2 °F 0.0 °F 994.5 in Calm   6.4 mph 60 % 0.0 in
18:28 7.1 °F 0.1 °F 994.5 in SW 1.4 mph 3.2 mph 61 % 0.0 in
18:34 6.8 °F 0.2 °F 994.5 in SSW 1.4 mph 1.6 mph 63 % 0.0 in
18:40 6.4 °F 0.3 °F 994.5 in Calm   1.6 mph 65 % 0.0 in
18:47 6.0 °F 0.3 °F 994.5 in Calm   1.6 mph 67 % 0.0 in
18:53 5.7 °F 0.1 °F 994.5 in Calm     67 % 0.0 in
18:59 5.4 °F 0.4 °F 994.5 in Calm     70 % 0.0 in
19:05 5.2 °F 0.6 °F 994.8 in Calm     72 % 0.0 in
19:11 5.1 °F 0.5 °F 994.8 in Calm     72 % 0.0 in
19:17 4.8 °F 0.2 °F 994.8 in Calm     72 % 0.0 in
19:23 4.4 °F 0.4 °F 994.8 in Calm     75 % 0.0 in
19:29 4.3 °F 0.4 °F 995.1 in Calm   1.6 mph 76 % 0.0 in
19:35 4.2 °F 0.3 °F 994.8 in Calm   1.6 mph 76 % 0.0 in
19:41 4.3 °F 0.4 °F 994.8 in Calm     76 % 0.0 in
19:47 4.3 °F 0.3 °F 995.1 in Calm     75 % 0.0 in
19:53 3.5 °F -0.5 °F 994.8 in Calm   3.2 mph 75 % 0.0 in
19:59 3.2 °F -0.1 °F 994.8 in North 1.4 mph 1.6 mph 79 % 0.0 in
20:05 3.2 °F -0.3 °F 994.8 in NNE 1.4 mph 1.6 mph 78 % 0.0 in
20:11 3.2 °F -0.1 °F 994.8 in Calm   1.6 mph 79 % 0.0 in
20:17 2.8 °F -0.5 °F 994.8 in NNW 1.4 mph 1.6 mph 79 % 0.0 in
20:23 2.7 °F -0.4 °F 994.8 in Calm     80 % 0.0 in
20:29 2.7 °F -0.4 °F 994.8 in Calm     80 % 0.0 in
20:35 2.7 °F -0.2 °F 994.5 in North 1.4 mph 1.6 mph 81 % 0.0 in
20:42 2.4 °F -0.5 °F 994.5 in North 1.4 mph 1.6 mph 81 % 0.0 in
20:48 2.2 °F -0.6 °F 994.5 in North 1.4 mph 3.2 mph 82 % 0.0 in
20:54 2.1 °F -0.8 °F 994.5 in Calm   1.6 mph 81 % 0.0 in
21:00 1.9 °F -0.8 °F 994.5 in NNW 1.4 mph 1.6 mph 82 % 0.0 in
21:06 1.7 °F -0.9 °F 994.1 in NNW 1.4 mph 3.2 mph 83 % 0.0 in
21:12 1.7 °F -0.9 °F 994.1 in Calm   1.6 mph 83 % 0.0 in
21:18 1.7 °F -0.7 °F 994.1 in NNW 1.4 mph 1.6 mph 84 % 0.0 in
21:24 1.7 °F -0.7 °F 994.1 in Calm   1.6 mph 84 % 0.0 in
21:30 1.9 °F -0.7 °F 994.1 in Calm   1.6 mph 83 % 0.0 in
21:36 2.2 °F -0.6 °F 994.1 in Calm   1.6 mph 82 % 0.0 in
21:42 2.2 °F -0.7 °F 994.1 in Calm     81 % 0.0 in
21:48 2.1 °F -0.7 °F 994.1 in NNE 1.4 mph 3.2 mph 82 % 0.0 in
21:54 2.1 °F -0.8 °F 994.1 in Calm   3.2 mph 81 % 0.0 in
22:00 1.9 °F -1.0 °F 994.1 in Calm   1.6 mph 81 % 0.0 in
22:06 1.8 °F -0.8 °F 994.1 in NNE 3.2 mph 3.2 mph 83 % 0.0 in
22:12 2.0 °F -0.9 °F 994.1 in Calm   1.6 mph 81 % 0.0 in
22:18 2.0 °F -0.9 °F 994.1 in North 1.4 mph 1.6 mph 81 % 0.0 in
22:24 1.9 °F -1.0 °F 994.1 in North 1.4 mph 3.2 mph 81 % 0.0 in
22:30 1.8 °F -1.1 °F 993.8 in Calm   1.6 mph 81 % 0.0 in
22:36 1.7 °F -1.2 °F 993.8 in Calm   1.6 mph 81 % 0.0 in
22:42 1.6 °F -1.3 °F 993.8 in NNE 1.4 mph 1.6 mph 81 % 0.0 in
22:48 1.6 °F -1.1 °F 993.8 in Calm   3.2 mph 82 % 0.0 in
22:54 1.5 °F -1.2 °F 993.8 in North 1.4 mph 3.2 mph 82 % 0.0 in
23:00 1.4 °F -1.3 °F 993.8 in NNE 1.4 mph 3.2 mph 82 % 0.0 in
23:06 1.5 °F -1.2 °F 993.8 in Calm   3.2 mph 82 % 0.0 in
23:12 1.7 °F -1.2 °F 993.8 in Calm   1.6 mph 81 % 0.0 in
23:18 1.7 °F -1.4 °F 993.5 in NNE 1.4 mph 1.6 mph 80 % 0.0 in
23:24 1.6 °F -1.3 °F 993.5 in Calm   3.2 mph 81 % 0.0 in
23:30 1.6 °F -1.3 °F 993.5 in NE 1.4 mph 3.2 mph 81 % 0.0 in
23:36 1.6 °F -1.5 °F 993.5 in Calm   1.6 mph 80 % 0.0 in
23:42 1.6 °F -1.5 °F 993.5 in Calm     80 % 0.0 in
23:48 1.6 °F -1.5 °F 993.5 in NE 1.4 mph 3.2 mph 80 % 0.0 in
23:54 1.7 °F -1.6 °F 993.5 in Calm   1.6 mph 79 % 0.0 in
Meteo18
Compliments of Weather Underground - 4 mb

Script developed by  Jim McMurry - jmcmurry@mwt.net Adapted for the template by  Wim van der Kuil - Leuven-Template.eu

You find our weather info also at:

European Weather Network

Weather Underground

Equipment we use:

Weather-station
Davis Vue

Weather-program
Meteobridge

Weather-server
Raspberry PI 2 B+

Provider
1 and 1

Davis Vue

Meteobridge

Raspberry PI 2 B+

1 and 1